Cape Reinga, New Zealand
Current Conditions -  °F | °C
As of 7:00 PM on Saturday 29 Nov 2014 (Local Time) from NZAA Reporting Station
Scattered Clouds Scattered Clouds  
Wind Chill: 57°   Ceiling: Unl
Heat Index: 57°   Visibility: 6mi
Dew Point: 46°   Wind: 17mph
Humidity: 67%   Direction: 250°WSW
Pressure: 29.91"   Gusts: NA
Location:  34.43°S, 172.68°E
Report Text: NZAA 290700Z AUTO 25015KT 210V270 9999 FEW033/// SCT049///14/08 Q1013 NOSIG
Loading
Personal Weather Stations






























Interactive Weather Map New forecast layout! Learn more

10-Day Weather Forecast

Advertisements
Track Severe Weather on mobile